createdAt,value
2023-04-12T00:00:48.466Z,12.60
2023-04-12T00:03:20.388Z,12.60
2023-04-12T00:05:55.054Z,12.60
2023-04-12T00:08:26.744Z,12.70
2023-04-12T00:10:54.099Z,12.60
2023-04-12T00:13:21.302Z,12.70
2023-04-12T00:15:48.532Z,12.70
2023-04-12T00:18:15.872Z,12.70
2023-04-12T00:20:43.790Z,12.70
2023-04-12T00:23:12.967Z,12.60
2023-04-12T00:25:40.244Z,12.70
2023-04-12T00:28:07.491Z,12.70
2023-04-12T00:30:34.736Z,12.60
2023-04-12T00:33:02.224Z,12.60
2023-04-12T00:35:29.542Z,12.60
2023-04-12T00:37:56.796Z,12.60
2023-04-12T00:40:24.127Z,12.50
2023-04-12T00:42:51.358Z,12.50
2023-04-12T00:45:18.736Z,12.50
2023-04-12T00:47:46.158Z,12.50
2023-04-12T00:50:14.217Z,12.50
2023-04-12T00:52:41.969Z,12.40
2023-04-12T00:55:10.351Z,12.40
2023-04-12T00:57:39.619Z,12.40
2023-04-12T01:00:10.445Z,12.40
2023-04-12T01:02:39.491Z,12.30
2023-04-12T01:05:08.555Z,12.30
2023-04-12T01:07:51.649Z,12.30
2023-04-12T01:10:31.672Z,12.30
2023-04-12T01:13:37.766Z,12.30
2023-04-12T01:16:37.884Z,12.30
2023-04-12T01:19:19.799Z,12.30
2023-04-12T01:22:19.009Z,12.40
2023-04-12T01:25:24.226Z,12.40
2023-04-12T01:27:57.480Z,12.40
2023-04-12T01:30:28.186Z,12.30
2023-04-12T01:32:59.246Z,12.30
2023-04-12T01:35:33.918Z,12.30
2023-04-12T01:38:03.331Z,12.30
2023-04-12T01:40:31.684Z,12.20
2023-04-12T01:43:13.247Z,12.20
2023-04-12T01:45:40.822Z,12.10
2023-04-12T01:48:11.185Z,12.00
2023-04-12T01:50:54.959Z,12.00
2023-04-12T01:53:59.442Z,12.00
2023-04-12T01:56:31.485Z,12.00
2023-04-12T01:59:00.921Z,11.80
2023-04-12T02:01:29.458Z,11.90
2023-04-12T02:04:00.707Z,11.80
2023-04-12T02:06:28.479Z,11.80
2023-04-12T02:09:04.731Z,11.80
2023-04-12T02:11:33.648Z,11.80
2023-04-12T02:14:00.866Z,11.80
2023-04-12T02:16:29.485Z,11.90
2023-04-12T02:18:57.484Z,11.80
2023-04-12T02:21:26.452Z,11.70
2023-04-12T02:23:54.819Z,11.70
2023-04-12T02:26:23.619Z,11.60
2023-04-12T02:28:52.706Z,11.60
2023-04-12T02:31:21.059Z,11.60
2023-04-12T02:33:49.867Z,11.60
2023-04-12T02:36:18.672Z,11.50
2023-04-12T02:38:46.185Z,11.50
2023-04-12T02:41:21.498Z,11.60
2023-04-12T02:43:49.614Z,11.60
2023-04-12T02:46:24.942Z,11.60
2023-04-12T02:48:57.267Z,11.60
2023-04-12T02:51:32.847Z,11.40
2023-04-12T02:54:02.411Z,11.40
2023-04-12T02:56:39.433Z,11.30
2023-04-12T02:59:25.452Z,11.30
2023-04-12T03:02:07.809Z,11.20
2023-04-12T03:04:39.901Z,11.20
2023-04-12T03:07:12.440Z,11.20
2023-04-12T03:09:50.645Z,11.20
2023-04-12T03:12:20.406Z,11.20
2023-04-12T03:14:57.461Z,11.30
2023-04-12T03:17:26.874Z,11.30
2023-04-12T03:19:58.187Z,11.10
2023-04-12T03:22:27.893Z,11.00
2023-04-12T03:24:59.105Z,11.00
2023-04-12T03:27:26.525Z,11.00
2023-04-12T03:29:54.212Z,11.00
2023-04-12T03:32:24.696Z,11.00
2023-04-12T03:34:51.962Z,11.00
2023-04-12T03:37:24.968Z,11.10
2023-04-12T03:39:54.292Z,10.90
2023-04-12T03:42:32.957Z,10.90
2023-04-12T03:45:12.350Z,10.80
2023-04-12T03:47:43.253Z,10.70
2023-04-12T03:50:12.569Z,10.70
2023-04-12T03:52:45.141Z,10.70
2023-04-12T03:55:13.659Z,10.70
2023-04-12T03:57:42.079Z,10.60
2023-04-12T04:00:10.612Z,10.70
2023-04-12T04:03:03.408Z,10.70
2023-04-12T04:05:34.084Z,10.70
2023-04-12T04:08:02.543Z,10.60
2023-04-12T04:10:36.196Z,10.60
2023-04-12T04:13:03.711Z,10.60
2023-04-12T04:15:31.446Z,10.60
2023-04-12T04:17:58.978Z,10.60
2023-04-12T04:20:27.830Z,10.60
2023-04-12T04:22:55.250Z,10.60
2023-04-12T04:25:29.996Z,10.60
2023-04-12T04:28:02.921Z,10.50
2023-04-12T04:30:34.294Z,10.60
2023-04-12T04:33:03.430Z,10.60
2023-04-12T04:35:31.667Z,10.40
2023-04-12T04:38:25.612Z,10.40
2023-04-12T04:40:56.659Z,10.40
2023-04-12T04:43:35.411Z,10.30
2023-04-12T04:46:03.386Z,10.40
2023-04-12T04:48:30.771Z,10.30
2023-04-12T04:51:00.167Z,10.30
2023-04-12T04:53:27.461Z,10.30
2023-04-12T04:56:01.225Z,10.20
2023-04-12T04:58:33.666Z,10.30
2023-04-12T05:01:01.333Z,10.30
2023-04-12T05:03:31.107Z,10.30
2023-04-12T05:06:01.553Z,10.30
2023-04-12T05:08:30.060Z,10.20
2023-04-12T05:10:57.700Z,10.20
2023-04-12T05:13:29.344Z,10.20
2023-04-12T05:15:56.969Z,10.20
2023-04-12T05:18:24.265Z,10.10
2023-04-12T05:20:52.054Z,10.00
2023-04-12T05:23:20.538Z,10.00
2023-04-12T05:25:50.166Z,10.00
2023-04-12T05:28:19.240Z,10.00
2023-04-12T05:30:47.029Z,10.00
2023-04-12T05:33:19.832Z,10.00
2023-04-12T05:35:49.245Z,10.10
2023-04-12T05:38:16.682Z,10.20
2023-04-12T05:40:50.064Z,10.20
2023-04-12T05:43:22.192Z,10.20
2023-04-12T05:45:51.475Z,10.30
2023-04-12T05:48:22.000Z,10.40
2023-04-12T05:50:53.323Z,10.30
2023-04-12T05:53:23.027Z,10.30
2023-04-12T05:55:51.779Z,10.30
2023-04-12T05:58:20.011Z,10.30
2023-04-12T06:00:50.339Z,10.30
2023-04-12T06:03:17.737Z,10.20
2023-04-12T06:05:47.488Z,10.10
2023-04-12T06:08:15.278Z,10.20
2023-04-12T06:10:43.800Z,10.10
2023-04-12T06:13:11.080Z,10.10
2023-04-12T06:15:42.271Z,10.30
2023-04-12T06:18:10.109Z,10.40
2023-04-12T06:20:40.578Z,10.40
2023-04-12T06:23:07.952Z,10.40
2023-04-12T06:25:35.676Z,10.40
2023-04-12T06:28:04.251Z,10.40
2023-04-12T06:30:33.567Z,10.50
2023-04-12T06:33:01.184Z,10.50
2023-04-12T06:35:28.805Z,10.50
2023-04-12T06:37:56.329Z,10.50
2023-04-12T06:40:23.594Z,10.60
2023-04-12T06:42:50.844Z,10.60
2023-04-12T06:45:23.002Z,10.70
2023-04-12T06:47:50.522Z,10.70
2023-04-12T06:50:18.566Z,10.70
2023-04-12T06:52:46.893Z,10.70
2023-04-12T06:55:14.300Z,10.70
2023-04-12T06:57:47.648Z,10.80
2023-04-12T07:00:15.350Z,10.70
2023-04-12T07:02:42.633Z,10.70
2023-04-12T07:05:10.078Z,10.70
2023-04-12T07:07:37.223Z,10.80
2023-04-12T07:10:04.813Z,10.80
2023-04-12T07:12:32.459Z,10.90
2023-04-12T07:14:59.878Z,10.90
2023-04-12T07:17:27.234Z,10.90
2023-04-12T07:19:55.229Z,10.90
2023-04-12T07:22:22.868Z,11.00
2023-04-12T07:24:51.349Z,11.00
2023-04-12T07:27:18.818Z,11.00
2023-04-12T07:29:46.020Z,11.10
2023-04-12T07:32:13.226Z,11.20
2023-04-12T07:34:40.507Z,11.30
2023-04-12T07:37:07.848Z,11.40
2023-04-12T07:39:35.207Z,11.40
2023-04-12T07:42:02.508Z,11.40
2023-04-12T07:44:31.564Z,11.40
2023-04-12T07:46:58.738Z,11.40
2023-04-12T07:49:25.950Z,11.40
2023-04-12T07:51:53.253Z,11.40
2023-04-12T07:54:21.696Z,11.30
2023-04-12T07:57:00.717Z,11.30
2023-04-12T07:59:28.139Z,11.30
2023-04-12T08:01:55.453Z,11.50
2023-04-12T08:04:22.989Z,11.60
2023-04-12T08:06:50.584Z,11.70
2023-04-12T08:09:17.869Z,11.70
2023-04-12T08:11:45.524Z,11.90
2023-04-12T08:14:13.243Z,11.90
2023-04-12T08:16:40.424Z,11.90
2023-04-12T08:19:08.176Z,12.00
2023-04-12T08:21:35.735Z,12.10
2023-04-12T08:24:03.017Z,12.10
2023-04-12T08:26:30.390Z,12.20
2023-04-12T08:28:58.496Z,12.30
2023-04-12T08:31:25.900Z,12.40
2023-04-12T08:33:53.089Z,12.30
2023-04-12T08:36:20.956Z,12.30
2023-04-12T08:38:52.556Z,12.20
2023-04-12T08:41:20.440Z,12.30
2023-04-12T08:43:48.843Z,12.30
2023-04-12T08:46:17.040Z,12.30
2023-04-12T08:48:49.710Z,12.30
2023-04-12T08:51:20.427Z,12.30
2023-04-12T08:53:48.179Z,12.30
2023-04-12T08:56:16.804Z,12.20
2023-04-12T08:58:49.301Z,12.30
2023-04-12T09:01:17.769Z,12.30
2023-04-12T09:03:46.819Z,12.40
2023-04-12T09:06:14.446Z,12.40
2023-04-12T09:08:56.034Z,12.50
2023-04-12T09:11:25.072Z,12.50
2023-04-12T09:13:52.686Z,12.60
2023-04-12T09:16:35.635Z,12.50
2023-04-12T09:19:03.726Z,12.60
2023-04-12T09:21:32.461Z,12.70
2023-04-12T09:24:17.839Z,12.80
2023-04-12T09:26:45.049Z,12.90
2023-04-12T09:29:27.990Z,12.90
2023-04-12T09:32:09.252Z,12.80
2023-04-12T09:34:37.354Z,12.90
2023-04-12T09:37:16.233Z,13.10
2023-04-12T09:39:44.191Z,13.20
2023-04-12T09:42:29.972Z,13.20
2023-04-12T09:45:01.904Z,13.20
2023-04-12T09:47:40.196Z,13.30
2023-04-12T09:50:09.963Z,13.30
2023-04-12T09:52:39.036Z,13.40
2023-04-12T09:55:13.373Z,13.30
2023-04-12T09:57:45.001Z,13.30
2023-04-12T10:00:22.452Z,13.50
2023-04-12T10:02:52.245Z,13.60
2023-04-12T10:05:22.363Z,13.70
2023-04-12T10:07:50.228Z,13.60
2023-04-12T10:10:19.055Z,13.50
2023-04-12T10:12:47.788Z,13.50
2023-04-12T10:15:18.842Z,13.60
2023-04-12T10:17:49.182Z,13.70
2023-04-12T10:20:18.402Z,13.90
2023-04-12T10:22:50.974Z,14.00
2023-04-12T10:25:26.986Z,13.80
2023-04-12T10:27:54.328Z,13.70
2023-04-12T10:30:28.789Z,13.70
2023-04-12T10:33:05.292Z,13.80
2023-04-12T10:36:13.063Z,13.90
2023-04-12T10:39:09.868Z,14.00
2023-04-12T10:41:37.707Z,14.10
2023-04-12T10:44:24.721Z,14.30
2023-04-12T10:46:52.154Z,14.30
2023-04-12T10:49:19.558Z,14.30
2023-04-12T10:52:14.148Z,14.30
2023-04-12T10:54:41.806Z,14.30
2023-04-12T10:57:47.875Z,14.40
2023-04-12T11:00:15.830Z,14.40
2023-04-12T11:03:12.355Z,14.60
2023-04-12T11:06:06.379Z,14.60
2023-04-12T11:09:29.605Z,14.50
2023-04-12T11:11:58.937Z,14.80
2023-04-12T11:14:36.165Z,14.90
2023-04-12T11:17:09.045Z,14.80
2023-04-12T11:19:44.405Z,14.60
2023-04-12T11:22:14.328Z,14.60
2023-04-12T11:24:45.305Z,14.60
2023-04-12T11:27:12.821Z,14.70
2023-04-12T11:29:40.623Z,14.80
2023-04-12T11:32:14.749Z,14.90
2023-04-12T11:34:44.195Z,14.90
2023-04-12T11:37:11.574Z,15.00
2023-04-12T11:39:41.354Z,15.10
2023-04-12T11:42:15.922Z,15.00
2023-04-12T11:47:18.991Z,14.90
2023-04-12T11:49:54.963Z,14.90
2023-04-12T11:52:28.060Z,14.90
2023-04-12T11:54:58.952Z,14.90
2023-04-12T11:57:26.444Z,15.10
2023-04-12T11:59:53.836Z,15.20
2023-04-12T12:02:24.007Z,15.30
2023-04-12T12:04:53.293Z,15.50
2023-04-12T12:07:22.147Z,15.60
2023-04-12T12:09:50.574Z,15.80
2023-04-12T12:12:18.876Z,15.70
2023-04-12T12:14:49.094Z,15.70
2023-04-12T12:17:17.417Z,15.70
2023-04-12T12:19:46.718Z,15.90
2023-04-12T12:22:19.044Z,16.10
2023-04-12T12:25:00.268Z,16.10
2023-04-12T12:27:43.259Z,16.20
2023-04-12T12:30:12.392Z,16.00
2023-04-12T12:32:40.343Z,16.00
2023-04-12T12:35:14.591Z,16.20
2023-04-12T12:37:52.655Z,16.40
2023-04-12T12:40:30.522Z,16.40
2023-04-12T12:42:57.797Z,16.30
2023-04-12T12:45:27.617Z,16.80
2023-04-12T12:48:03.211Z,17.00
2023-04-12T12:50:36.350Z,16.80
2023-04-12T12:53:05.920Z,16.90
2023-04-12T12:55:33.285Z,17.20
2023-04-12T13:00:31.607Z,18.20
2023-04-12T13:02:59.436Z,18.60
2023-04-12T13:05:27.036Z,19.40
2023-04-12T13:07:54.250Z,20.90
2023-04-12T13:10:21.686Z,22.70
2023-04-12T13:12:48.902Z,24.10
2023-04-12T13:17:46.594Z,26.30
2023-04-12T13:20:13.723Z,26.30
2023-04-12T13:22:41.026Z,25.80
2023-04-12T13:25:09.275Z,26.40
2023-04-12T13:27:36.737Z,27.70
2023-04-12T13:30:04.842Z,28.10
2023-04-12T13:32:32.309Z,28.40
2023-04-12T13:34:59.821Z,29.30
2023-04-12T13:37:27.153Z,30.10
2023-04-12T13:39:54.432Z,31.20
2023-04-12T13:42:22.923Z,31.90
2023-04-12T13:44:50.626Z,29.30
2023-04-12T13:47:18.089Z,27.50
2023-04-12T13:49:45.934Z,25.20
2023-04-12T13:52:13.599Z,23.70
2023-04-12T13:54:41.299Z,22.60
2023-04-12T13:57:09.000Z,22.30
2023-04-12T13:59:36.210Z,21.40
2023-04-12T14:02:03.723Z,21.80
2023-04-12T14:04:32.004Z,24.10
2023-04-12T14:06:59.687Z,26.00
2023-04-12T14:09:29.447Z,25.50
2023-04-12T14:12:00.158Z,24.20
2023-04-12T14:14:27.922Z,23.00
2023-04-12T14:16:58.559Z,22.00
2023-04-12T14:19:25.913Z,21.10
2023-04-12T14:21:53.720Z,21.80
2023-04-12T14:24:21.694Z,22.70
2023-04-12T14:26:50.322Z,24.10
2023-04-12T14:29:17.590Z,24.80
2023-04-12T14:31:44.899Z,24.10
2023-04-12T14:34:13.477Z,24.60
2023-04-12T14:36:41.434Z,25.20
2023-04-12T14:39:10.619Z,24.90
2023-04-12T14:41:38.814Z,24.20
2023-04-12T14:44:06.240Z,24.50
2023-04-12T14:46:33.547Z,24.30
2023-04-12T14:49:01.554Z,24.10
2023-04-12T14:51:29.707Z,25.20
2023-04-12T14:53:57.667Z,23.90
2023-04-12T14:56:28.588Z,23.90
2023-04-12T14:58:56.945Z,24.50
2023-04-12T15:01:25.577Z,24.90
2023-04-12T15:03:53.892Z,23.60
2023-04-12T15:06:23.422Z,22.60
2023-04-12T15:08:54.355Z,22.00
2023-04-12T15:11:26.543Z,22.90
2023-04-12T15:13:55.441Z,23.70
2023-04-12T15:16:23.513Z,24.10
2023-04-12T15:18:51.836Z,24.60
2023-04-12T15:21:19.431Z,24.80
2023-04-12T15:23:47.442Z,25.60
2023-04-12T15:26:15.979Z,26.80
2023-04-12T15:28:43.269Z,27.30
2023-04-12T15:31:12.064Z,27.40
2023-04-12T15:33:39.490Z,26.30
2023-04-12T15:36:07.205Z,25.70
2023-04-12T15:38:42.551Z,25.20
2023-04-12T15:41:10.588Z,24.70
2023-04-12T15:43:37.824Z,24.40
2023-04-12T15:46:05.350Z,24.00
2023-04-12T15:48:32.644Z,23.50
2023-04-12T15:51:00.284Z,22.90
2023-04-12T15:53:27.613Z,22.20
2023-04-12T15:55:55.519Z,21.30
2023-04-12T15:58:23.802Z,20.80
2023-04-12T16:00:53.052Z,20.50
2023-04-12T16:03:23.239Z,20.50
2023-04-12T16:05:54.712Z,20.70
2023-04-12T16:08:22.764Z,20.80
2023-04-12T16:10:50.951Z,20.50
2023-04-12T16:13:18.871Z,20.40
2023-04-12T16:15:47.091Z,20.40
2023-04-12T16:18:14.614Z,20.30
2023-04-12T16:20:41.850Z,20.30
2023-04-12T16:23:09.182Z,20.40
2023-04-12T16:25:36.554Z,20.30
2023-04-12T16:28:04.198Z,20.40
2023-04-12T16:30:32.856Z,20.30
2023-04-12T16:33:00.412Z,20.20
2023-04-12T16:35:28.085Z,20.10
2023-04-12T16:37:55.571Z,20.00
2023-04-12T16:40:24.690Z,19.90
2023-04-12T16:42:52.128Z,19.80
2023-04-12T16:45:19.963Z,19.60
2023-04-12T16:47:47.758Z,19.20
2023-04-12T16:50:15.423Z,19.00
2023-04-12T16:52:42.879Z,18.70
2023-04-12T16:55:11.456Z,18.50
2023-04-12T16:57:41.715Z,18.30
2023-04-12T17:00:20.935Z,18.10
2023-04-12T17:02:52.934Z,17.90
2023-04-12T17:05:22.350Z,17.80
2023-04-12T17:07:51.518Z,17.60
2023-04-12T17:10:24.369Z,17.60
2023-04-12T17:12:55.766Z,17.50
2023-04-12T17:15:25.358Z,17.40
2023-04-12T17:17:54.425Z,17.40
2023-04-12T17:20:23.185Z,17.30
2023-04-12T17:22:51.184Z,17.30
2023-04-12T17:25:20.698Z,17.20
2023-04-12T17:27:48.776Z,17.20
2023-04-12T17:30:17.722Z,17.10
2023-04-12T17:32:47.743Z,17.10
2023-04-12T17:35:15.949Z,17.00
2023-04-12T17:37:43.343Z,16.90
2023-04-12T17:40:11.206Z,16.90
2023-04-12T17:42:42.266Z,16.80
2023-04-12T17:45:14.711Z,16.80
2023-04-12T17:47:42.799Z,16.70
2023-04-12T17:50:11.308Z,16.70
2023-04-12T17:52:39.075Z,16.60
2023-04-12T17:55:09.402Z,16.60
2023-04-12T17:57:36.833Z,16.60
2023-04-12T18:00:14.342Z,16.60
2023-04-12T18:02:43.599Z,16.60
2023-04-12T18:05:11.443Z,16.50
2023-04-12T18:07:40.244Z,16.50
2023-04-12T18:10:09.393Z,16.40
2023-04-12T18:12:38.767Z,16.40
2023-04-12T18:15:08.362Z,16.30
2023-04-12T18:17:36.057Z,16.40
2023-04-12T18:20:06.079Z,16.30
2023-04-12T18:22:33.287Z,16.30
2023-04-12T18:25:01.248Z,16.20
2023-04-12T18:27:31.993Z,16.20
2023-04-12T18:30:01.375Z,16.20
2023-04-12T18:32:29.511Z,16.20
2023-04-12T18:34:56.791Z,16.10
2023-04-12T18:37:27.030Z,16.10
2023-04-12T18:39:55.536Z,16.10
2023-04-12T18:42:22.803Z,16.00
2023-04-12T18:44:50.906Z,16.00
2023-04-12T18:47:18.773Z,15.90
2023-04-12T18:49:45.949Z,15.90
2023-04-12T18:52:13.196Z,15.80
2023-04-12T18:54:40.396Z,15.80
2023-04-12T18:57:08.444Z,15.70
2023-04-12T18:59:35.730Z,15.70
2023-04-12T19:02:03.495Z,15.60
2023-04-12T19:04:30.848Z,15.60
2023-04-12T19:06:58.112Z,15.40
2023-04-12T19:09:25.304Z,15.40
2023-04-12T19:11:55.557Z,15.30
2023-04-12T19:14:22.948Z,15.20
2023-04-12T19:16:50.147Z,15.20
2023-04-12T19:19:17.468Z,15.10
2023-04-12T19:21:44.682Z,15.10
2023-04-12T19:24:12.411Z,15.00
2023-04-12T19:26:46.956Z,15.00
2023-04-12T19:29:19.771Z,15.00
2023-04-12T19:31:52.178Z,14.90
2023-04-12T19:34:19.586Z,14.90
2023-04-12T19:36:47.687Z,14.90
2023-04-12T19:39:15.822Z,14.80
2023-04-12T19:41:42.969Z,14.80
2023-04-12T19:44:10.241Z,14.70
2023-04-12T19:46:39.038Z,14.70
2023-04-12T19:49:06.739Z,14.60
2023-04-12T19:51:34.725Z,14.60
2023-04-12T19:54:02.791Z,14.60
2023-04-12T19:56:31.539Z,14.50
2023-04-12T19:59:00.099Z,14.50
2023-04-12T20:01:27.636Z,14.50
2023-04-12T20:03:54.969Z,14.50
2023-04-12T20:06:22.282Z,14.40
2023-04-12T20:08:49.550Z,14.50
2023-04-12T20:11:16.866Z,14.50
2023-04-12T20:13:44.067Z,14.40
2023-04-12T20:16:11.311Z,14.30
2023-04-12T20:18:38.708Z,14.30
2023-04-12T20:21:09.947Z,14.20
2023-04-12T20:23:37.369Z,14.20
2023-04-12T20:26:05.756Z,14.10
2023-04-12T20:28:33.161Z,14.00
2023-04-12T20:31:00.868Z,14.00
2023-04-12T20:33:28.129Z,14.00
2023-04-12T20:35:55.358Z,13.90
2023-04-12T20:38:23.196Z,13.90
2023-04-12T20:40:51.388Z,13.90
2023-04-12T20:43:18.640Z,13.80
2023-04-12T20:45:46.972Z,13.90
2023-04-12T20:48:14.817Z,13.90
2023-04-12T20:50:42.370Z,13.80
2023-04-12T20:53:15.512Z,13.80
2023-04-12T20:55:42.947Z,13.80
2023-04-12T20:58:14.458Z,13.80
2023-04-12T21:00:50.863Z,13.70
2023-04-12T21:03:19.253Z,13.70
2023-04-12T21:05:50.556Z,13.60
2023-04-12T21:08:18.618Z,13.50
2023-04-12T21:10:48.284Z,13.50
2023-04-12T21:13:16.402Z,13.50
2023-04-12T21:15:43.802Z,13.40
2023-04-12T21:18:11.033Z,13.40
2023-04-12T21:20:38.737Z,13.40
2023-04-12T21:23:07.448Z,13.40
2023-04-12T21:25:34.960Z,13.40
2023-04-12T21:28:02.282Z,13.40
2023-04-12T21:30:29.613Z,13.40
2023-04-12T21:32:56.851Z,13.40
2023-04-12T21:35:24.363Z,13.50
2023-04-12T21:37:52.382Z,13.50
2023-04-12T21:40:19.658Z,13.50
2023-04-12T21:42:46.826Z,13.50
2023-04-12T21:45:14.497Z,13.40
2023-04-12T21:47:42.843Z,13.20
2023-04-12T21:50:12.956Z,13.20
2023-04-12T21:52:44.180Z,13.00
2023-04-12T21:55:11.868Z,12.90
2023-04-12T21:57:39.134Z,12.80
2023-04-12T22:00:08.907Z,12.90
2023-04-12T22:02:39.548Z,12.90
2023-04-12T22:05:07.587Z,13.00
2023-04-12T22:07:35.370Z,13.00
2023-04-12T22:10:02.537Z,13.00
2023-04-12T22:12:33.824Z,13.00
2023-04-12T22:15:01.226Z,12.90
2023-04-12T22:17:31.039Z,12.80
2023-04-12T22:19:58.946Z,12.80
2023-04-12T22:22:28.869Z,12.70
2023-04-12T22:24:56.619Z,12.70
2023-04-12T22:27:26.587Z,12.70
2023-04-12T22:29:53.973Z,12.70
2023-04-12T22:32:21.395Z,12.70
2023-04-12T22:34:57.969Z,12.60
2023-04-12T22:37:35.131Z,12.60
2023-04-12T22:40:03.725Z,12.60
2023-04-12T22:42:31.356Z,12.60
2023-04-12T22:44:58.684Z,12.60
2023-04-12T22:47:26.919Z,12.50
2023-04-12T22:50:01.344Z,12.50
2023-04-12T22:52:30.668Z,12.50
2023-04-12T22:54:58.186Z,12.50
2023-04-12T22:57:25.686Z,12.50
2023-04-12T22:59:53.648Z,12.50
2023-04-12T23:02:21.104Z,12.50
2023-04-12T23:04:51.120Z,12.40
2023-04-12T23:07:18.528Z,12.40
2023-04-12T23:09:46.112Z,12.40
2023-04-12T23:12:13.778Z,12.30
2023-04-12T23:14:41.094Z,12.30
2023-04-12T23:17:08.376Z,12.30
2023-04-12T23:19:35.612Z,12.20
2023-04-12T23:22:03.423Z,12.20
2023-04-12T23:24:30.975Z,12.20
2023-04-12T23:26:58.994Z,12.20
2023-04-12T23:29:26.282Z,12.20
2023-04-12T23:31:53.556Z,12.20
2023-04-12T23:34:22.154Z,12.20
2023-04-12T23:36:52.194Z,12.20
2023-04-12T23:39:20.320Z,12.10
2023-04-12T23:41:47.466Z,12.10
2023-04-12T23:44:14.795Z,12.00
2023-04-12T23:46:42.031Z,12.00
2023-04-12T23:49:09.280Z,12.00
2023-04-12T23:51:36.493Z,12.00
2023-04-12T23:54:04.078Z,12.00
2023-04-12T23:56:31.634Z,12.00
2023-04-12T23:58:58.835Z,12.00
